createdAt,value
2023-04-02T00:00:32.731Z,149.48
2023-04-02T00:01:32.712Z,147.98
2023-04-02T00:02:32.755Z,148.85
2023-04-02T00:03:32.762Z,150.80
2023-04-02T00:04:32.677Z,150.46
2023-04-02T00:05:32.902Z,150.40
2023-04-02T00:06:32.845Z,149.39
2023-04-02T00:07:32.695Z,148.18
2023-04-02T00:08:32.673Z,149.49
2023-04-02T00:09:32.682Z,149.50
2023-04-02T00:10:32.654Z,149.25
2023-04-02T00:11:32.648Z,150.01
2023-04-02T00:12:32.648Z,149.55
2023-04-02T00:13:32.641Z,148.79
2023-04-02T00:14:32.618Z,149.24
2023-04-02T00:15:32.774Z,146.54
2023-04-02T00:16:32.673Z,147.08
2023-04-02T00:17:32.613Z,147.00
2023-04-02T00:18:32.631Z,147.47
2023-04-02T00:19:32.582Z,147.46
2023-04-02T00:20:32.584Z,145.88
2023-04-02T00:21:32.561Z,147.34
2023-04-02T00:22:32.611Z,147.76
2023-04-02T00:23:32.580Z,146.81
2023-04-02T00:24:32.552Z,146.50
2023-04-02T00:25:32.690Z,144.92
2023-04-02T00:26:32.578Z,146.17
2023-04-02T00:27:32.537Z,144.59
2023-04-02T00:28:32.543Z,144.64
2023-04-02T00:29:32.512Z,143.51
2023-04-02T00:30:32.479Z,143.76
2023-04-02T00:31:32.521Z,141.49
2023-04-02T00:32:32.519Z,140.32
2023-04-02T00:33:32.461Z,143.28
2023-04-02T00:34:32.485Z,143.70
2023-04-02T00:35:32.573Z,144.86
2023-04-02T00:36:32.436Z,144.84
2023-04-02T00:37:32.434Z,147.07
2023-04-02T00:38:32.437Z,146.31
2023-04-02T00:39:32.417Z,147.36
2023-04-02T00:40:32.439Z,147.78
2023-04-02T00:41:32.407Z,147.68
2023-04-02T00:42:32.438Z,149.14
2023-04-02T00:43:32.428Z,148.77
2023-04-02T00:44:32.463Z,148.90
2023-04-02T00:45:32.749Z,150.15
2023-04-02T00:46:32.596Z,148.39
2023-04-02T00:47:32.433Z,148.92
2023-04-02T00:48:32.418Z,147.47
2023-04-02T00:49:32.401Z,145.71
2023-04-02T00:50:32.402Z,145.70
2023-04-02T00:51:32.416Z,145.34
2023-04-02T00:52:32.400Z,142.88
2023-04-02T00:53:32.397Z,141.80
2023-04-02T00:54:32.375Z,141.24
2023-04-02T00:55:32.481Z,141.81
2023-04-02T00:56:32.318Z,140.10
2023-04-02T00:57:32.389Z,139.65
2023-04-02T00:58:32.367Z,140.17
2023-04-02T00:59:32.354Z,141.76
2023-04-02T01:00:32.393Z,139.82
2023-04-02T01:01:32.411Z,139.18
2023-04-02T01:02:32.473Z,139.87
2023-04-02T01:03:32.463Z,139.08
2023-04-02T01:04:32.336Z,138.90
2023-04-02T01:05:32.716Z,139.33
2023-04-02T01:06:32.340Z,137.95
2023-04-02T01:07:32.329Z,138.26
2023-04-02T01:08:32.317Z,136.99
2023-04-02T01:09:32.329Z,135.17
2023-04-02T01:10:32.298Z,135.41
2023-04-02T01:11:32.319Z,134.68
2023-04-02T01:12:32.274Z,134.51
2023-04-02T01:13:32.295Z,133.18
2023-04-02T01:14:32.264Z,133.39
2023-04-02T01:15:32.324Z,136.09
2023-04-02T01:16:32.319Z,135.04
2023-04-02T01:17:32.302Z,136.14
2023-04-02T01:18:32.245Z,136.41
2023-04-02T01:19:32.224Z,136.69
2023-04-02T01:20:32.230Z,139.33
2023-04-02T01:21:32.244Z,136.56
2023-04-02T01:22:32.212Z,137.62
2023-04-02T01:23:32.228Z,137.59
2023-04-02T01:24:32.216Z,137.24
2023-04-02T01:25:32.217Z,136.40
2023-04-02T01:26:32.207Z,135.47
2023-04-02T01:27:32.187Z,135.38
2023-04-02T01:28:32.206Z,134.45
2023-04-02T01:29:32.188Z,132.63
2023-04-02T01:30:32.171Z,132.60
2023-04-02T01:31:32.179Z,134.30
2023-04-02T01:32:32.211Z,133.94
2023-04-02T01:33:32.154Z,135.48
2023-04-02T01:34:32.162Z,138.32
2023-04-02T01:35:32.204Z,138.31
2023-04-02T01:36:32.160Z,139.64
2023-04-02T01:37:32.102Z,140.56
2023-04-02T01:38:32.104Z,136.53
2023-04-02T01:39:32.084Z,138.15
2023-04-02T01:40:32.109Z,138.66
2023-04-02T01:41:32.103Z,138.16
2023-04-02T01:42:32.111Z,139.66
2023-04-02T01:43:32.068Z,139.86
2023-04-02T01:44:32.058Z,139.37
2023-04-02T01:45:32.063Z,139.17
2023-04-02T01:46:32.198Z,138.20
2023-04-02T01:47:32.108Z,137.57
2023-04-02T01:48:32.073Z,134.44
2023-04-02T01:49:32.050Z,135.72
2023-04-02T01:50:32.180Z,133.53
2023-04-02T01:51:32.057Z,135.79
2023-04-02T01:52:32.015Z,136.33
2023-04-02T01:53:32.027Z,136.87
2023-04-02T01:54:32.033Z,135.13
2023-04-02T01:55:32.163Z,135.68
2023-04-02T01:56:31.988Z,135.88
2023-04-02T01:57:32.066Z,134.62
2023-04-02T01:58:31.998Z,134.53
2023-04-02T01:59:31.988Z,135.01
2023-04-02T02:00:31.993Z,134.87
2023-04-02T02:01:31.924Z,133.94
2023-04-02T02:02:31.994Z,134.48
2023-04-02T02:03:31.890Z,133.02
2023-04-02T02:04:31.929Z,132.54
2023-04-02T02:05:31.971Z,132.86
2023-04-02T02:06:31.879Z,130.34
2023-04-02T02:07:31.859Z,133.77
2023-04-02T02:08:31.868Z,130.34
2023-04-02T02:09:31.815Z,130.73
2023-04-02T02:10:31.824Z,130.09
2023-04-02T02:11:31.788Z,130.44
2023-04-02T02:12:31.806Z,131.00
2023-04-02T02:13:31.796Z,130.07
2023-04-02T02:14:31.787Z,131.66
2023-04-02T02:15:31.838Z,129.06
2023-04-02T02:16:31.923Z,129.12
2023-04-02T02:17:31.760Z,130.39
2023-04-02T02:18:31.768Z,129.80
2023-04-02T02:19:31.742Z,129.49
2023-04-02T02:20:31.743Z,131.06
2023-04-02T02:21:31.768Z,132.99
2023-04-02T02:22:31.725Z,133.51
2023-04-02T02:23:31.723Z,134.41
2023-04-02T02:24:31.765Z,135.21
2023-04-02T02:25:31.780Z,135.46
2023-04-02T02:26:31.749Z,136.10
2023-04-02T02:27:31.746Z,136.46
2023-04-02T02:28:31.721Z,137.53
2023-04-02T02:29:31.723Z,137.86
2023-04-02T02:30:31.761Z,139.10
2023-04-02T02:31:31.730Z,138.48
2023-04-02T02:32:32.336Z,141.32
2023-04-02T02:33:31.775Z,141.34
2023-04-02T02:34:31.745Z,142.12
2023-04-02T02:35:31.750Z,142.86
2023-04-02T02:36:31.760Z,140.87
2023-04-02T02:37:31.758Z,141.23
2023-04-02T02:38:31.744Z,143.30
2023-04-02T02:39:31.737Z,142.49
2023-04-02T02:40:31.698Z,142.62
2023-04-02T02:41:31.741Z,143.92
2023-04-02T02:42:31.748Z,144.42
2023-04-02T02:43:31.706Z,144.11
2023-04-02T02:44:31.710Z,146.43
2023-04-02T02:45:31.670Z,145.65
2023-04-02T02:46:31.749Z,144.54
2023-04-02T02:47:31.686Z,146.84
2023-04-02T02:48:31.672Z,147.79
2023-04-02T02:49:31.646Z,146.99
2023-04-02T02:50:31.672Z,146.99
2023-04-02T02:51:31.653Z,147.09
2023-04-02T02:52:31.651Z,145.66
2023-04-02T02:53:31.634Z,147.78
2023-04-02T02:54:31.652Z,146.66
2023-04-02T02:55:31.613Z,146.84
2023-04-02T02:56:31.613Z,148.51
2023-04-02T02:57:31.752Z,147.26
2023-04-02T02:58:31.614Z,147.83
2023-04-02T02:59:31.671Z,148.54
2023-04-02T03:00:31.600Z,147.99
2023-04-02T03:01:31.637Z,147.97
2023-04-02T03:02:31.764Z,148.31
2023-04-02T03:03:31.848Z,147.81
2023-04-02T03:04:31.609Z,148.95
2023-04-02T03:05:31.574Z,148.03
2023-04-02T03:06:31.625Z,147.86
2023-04-02T03:07:31.590Z,147.22
2023-04-02T03:08:31.612Z,147.16
2023-04-02T03:09:31.575Z,148.68
2023-04-02T03:10:31.550Z,148.86
2023-04-02T03:11:31.566Z,148.57
2023-04-02T03:12:31.553Z,149.28
2023-04-02T03:13:31.529Z,149.80
2023-04-02T03:14:31.524Z,150.55
2023-04-02T03:15:31.574Z,149.69
2023-04-02T03:16:31.512Z,150.40
2023-04-02T03:17:31.549Z,150.07
2023-04-02T03:18:31.518Z,150.70
2023-04-02T03:19:31.537Z,151.47
2023-04-02T03:20:31.500Z,152.37
2023-04-02T03:21:31.502Z,151.75
2023-04-02T03:22:31.540Z,152.63
2023-04-02T03:23:31.521Z,151.60
2023-04-02T03:24:31.468Z,152.62
2023-04-02T03:25:31.469Z,152.53
2023-04-02T03:26:31.475Z,152.57
2023-04-02T03:27:31.490Z,154.14
2023-04-02T03:28:31.470Z,152.75
2023-04-02T03:29:31.466Z,152.40
2023-04-02T03:30:31.502Z,152.22
2023-04-02T03:31:31.493Z,150.62
2023-04-02T03:32:31.502Z,152.16
2023-04-02T03:33:31.481Z,153.12
2023-04-02T03:34:31.455Z,152.75
2023-04-02T03:35:31.481Z,152.57
2023-04-02T03:36:31.478Z,154.92
2023-04-02T03:37:31.474Z,154.74
2023-04-02T03:38:31.442Z,153.80
2023-04-02T03:39:31.476Z,153.82
2023-04-02T03:40:31.448Z,154.16
2023-04-02T03:41:31.443Z,152.51
2023-04-02T03:42:31.476Z,155.09
2023-04-02T03:43:31.440Z,153.74
2023-04-02T03:44:31.435Z,154.38
2023-04-02T03:45:31.437Z,154.57
2023-04-02T03:46:32.303Z,156.20
2023-04-02T03:47:31.452Z,157.54
2023-04-02T03:48:31.440Z,158.09
2023-04-02T03:49:31.448Z,157.81
2023-04-02T03:50:31.443Z,159.01
2023-04-02T03:51:31.459Z,159.55
2023-04-02T03:52:31.452Z,160.08
2023-04-02T03:53:31.441Z,160.63
2023-04-02T03:54:31.443Z,160.40
2023-04-02T03:55:31.430Z,161.40
2023-04-02T03:56:31.417Z,161.43
2023-04-02T03:57:31.536Z,161.10
2023-04-02T03:58:31.412Z,162.60
2023-04-02T03:59:31.391Z,160.21
2023-04-02T04:00:31.389Z,162.32
2023-04-02T04:01:31.406Z,161.44
2023-04-02T04:02:31.626Z,161.96
2023-04-02T04:03:31.398Z,161.13
2023-04-02T04:04:31.398Z,162.58
2023-04-02T04:05:31.370Z,163.33
2023-04-02T04:06:31.331Z,161.76
2023-04-02T04:07:31.330Z,162.83
2023-04-02T04:08:31.343Z,164.14
2023-04-02T04:09:31.338Z,162.48
2023-04-02T04:10:31.352Z,163.97
2023-04-02T04:11:31.273Z,162.08
2023-04-02T04:12:31.280Z,163.02
2023-04-02T04:13:31.302Z,163.12
2023-04-02T04:14:31.297Z,164.33
2023-04-02T04:15:31.277Z,164.07
2023-04-02T04:16:31.297Z,164.30
2023-04-02T04:17:31.279Z,165.91
2023-04-02T04:18:31.255Z,165.83
2023-04-02T04:19:31.244Z,166.04
2023-04-02T04:20:31.245Z,164.52
2023-04-02T04:21:31.380Z,166.06
2023-04-02T04:22:31.187Z,167.21
2023-04-02T04:23:31.218Z,167.18
2023-04-02T04:24:31.206Z,167.32
2023-04-02T04:25:31.187Z,167.73
2023-04-02T04:26:31.159Z,167.74
2023-04-02T04:27:31.175Z,167.90
2023-04-02T04:28:31.166Z,168.39
2023-04-02T04:29:31.175Z,167.53
2023-04-02T04:30:31.166Z,168.46
2023-04-02T04:31:31.166Z,168.43
2023-04-02T04:32:31.178Z,168.79
2023-04-02T04:33:31.166Z,169.16
2023-04-02T04:34:31.170Z,169.00
2023-04-02T04:35:31.183Z,169.00
2023-04-02T04:36:31.151Z,168.23
2023-04-02T04:37:31.156Z,168.78
2023-04-02T04:38:31.124Z,169.55
2023-04-02T04:39:31.138Z,170.09
2023-04-02T04:40:31.092Z,169.17
2023-04-02T04:41:31.119Z,169.80
2023-04-02T04:42:31.149Z,169.43
2023-04-02T04:43:31.117Z,168.79
2023-04-02T04:44:31.106Z,169.53
2023-04-02T04:45:31.108Z,170.10
2023-04-02T04:46:31.200Z,170.62
2023-04-02T04:47:31.201Z,170.40
2023-04-02T04:48:31.149Z,170.52
2023-04-02T04:49:31.165Z,170.48
2023-04-02T04:50:31.128Z,168.90
2023-04-02T04:51:31.129Z,169.35
2023-04-02T04:52:31.122Z,169.50
2023-04-02T04:53:31.155Z,169.28
2023-04-02T04:54:31.135Z,169.72
2023-04-02T04:55:31.152Z,170.66
2023-04-02T04:56:31.136Z,169.61
2023-04-02T04:57:31.209Z,170.07
2023-04-02T04:58:31.116Z,171.42
2023-04-02T04:59:31.120Z,170.03
2023-04-02T05:00:31.123Z,169.85
2023-04-02T05:01:31.187Z,168.21
2023-04-02T05:02:31.152Z,170.00
2023-04-02T05:03:31.086Z,167.80
2023-04-02T05:04:31.129Z,168.40
2023-04-02T05:05:31.086Z,168.38
2023-04-02T05:06:31.059Z,168.82
2023-04-02T05:07:31.052Z,167.97
2023-04-02T05:08:31.283Z,167.10
2023-04-02T05:09:31.029Z,167.82
2023-04-02T05:10:31.053Z,166.75
2023-04-02T05:11:31.031Z,167.94
2023-04-02T05:12:31.033Z,167.83
2023-04-02T05:13:31.052Z,167.40
2023-04-02T05:14:31.022Z,166.37
2023-04-02T05:15:31.097Z,166.25
2023-04-02T05:16:31.103Z,166.32
2023-04-02T05:17:31.030Z,166.39
2023-04-02T05:18:31.025Z,166.60
2023-04-02T05:19:31.009Z,166.97
2023-04-02T05:20:30.989Z,165.92
2023-04-02T05:21:31.013Z,166.56
2023-04-02T05:22:31.016Z,167.04
2023-04-02T05:23:31.039Z,165.82
2023-04-02T05:24:31.116Z,165.83
2023-04-02T05:25:31.047Z,165.81
2023-04-02T05:26:31.057Z,165.96
2023-04-02T05:27:31.062Z,165.74
2023-04-02T05:28:31.041Z,166.56
2023-04-02T05:29:31.036Z,168.07
2023-04-02T05:30:31.140Z,166.43
2023-04-02T05:31:31.054Z,166.75
2023-04-02T05:32:31.058Z,166.50
2023-04-02T05:33:31.013Z,166.61
2023-04-02T05:34:31.011Z,167.58
2023-04-02T05:35:30.997Z,167.63
2023-04-02T05:36:31.013Z,166.97
2023-04-02T05:37:31.032Z,167.86
2023-04-02T05:38:31.029Z,167.13
2023-04-02T05:39:31.013Z,165.89
2023-04-02T05:40:30.998Z,166.49
2023-04-02T05:41:30.979Z,165.87
2023-04-02T05:42:30.989Z,166.97
2023-04-02T05:43:30.976Z,166.21
2023-04-02T05:44:30.968Z,165.05
2023-04-02T05:45:30.964Z,166.64
2023-04-02T05:46:31.003Z,165.63
2023-04-02T05:47:31.026Z,166.23
2023-04-02T05:48:30.988Z,166.74
2023-04-02T05:49:30.979Z,165.77
2023-04-02T05:50:30.945Z,165.47
2023-04-02T05:51:30.961Z,165.17
2023-04-02T05:52:30.962Z,164.69
2023-04-02T05:53:30.956Z,164.77
2023-04-02T05:54:30.943Z,165.66
2023-04-02T05:55:30.946Z,164.21
2023-04-02T05:56:30.931Z,165.38
2023-04-02T05:57:42.385Z,165.37
2023-04-02T05:58:35.993Z,165.63
2023-04-02T05:59:31.883Z,165.85
2023-04-02T06:00:30.861Z,167.02
2023-04-02T06:01:30.846Z,167.82
2023-04-02T06:02:31.035Z,168.92
2023-04-02T06:03:30.896Z,169.46
2023-04-02T06:04:30.761Z,167.78
2023-04-02T06:05:30.756Z,167.33
2023-04-02T06:06:30.716Z,165.98
2023-04-02T06:07:30.699Z,165.98
2023-04-02T06:08:30.683Z,165.85
2023-04-02T06:09:30.669Z,165.79
2023-04-02T06:10:30.640Z,167.43
2023-04-02T06:11:30.592Z,166.16
2023-04-02T06:12:30.584Z,167.92
2023-04-02T06:13:30.571Z,166.51
2023-04-02T06:14:30.587Z,166.19
2023-04-02T06:15:30.511Z,166.02
2023-04-02T06:16:30.540Z,166.51
2023-04-02T06:17:30.532Z,165.15
2023-04-02T06:18:30.447Z,164.83
2023-04-02T06:19:30.452Z,165.35
2023-04-02T06:20:30.417Z,165.47
2023-04-02T06:21:30.379Z,164.84
2023-04-02T06:22:30.355Z,165.38
2023-04-02T06:23:30.358Z,164.76
2023-04-02T06:24:30.331Z,165.94
2023-04-02T06:25:30.296Z,166.38
2023-04-02T06:26:30.276Z,165.65
2023-04-02T06:27:30.240Z,165.49
2023-04-02T06:28:30.224Z,164.25
2023-04-02T06:29:30.219Z,164.98
2023-04-02T06:30:30.184Z,163.65
2023-04-02T06:31:30.162Z,163.69
2023-04-02T06:32:30.123Z,163.10
2023-04-02T06:33:30.093Z,165.64
2023-04-02T06:34:30.109Z,164.34
2023-04-02T06:35:30.106Z,164.84
2023-04-02T06:36:30.169Z,164.38
2023-04-02T06:37:30.084Z,164.76
2023-04-02T06:38:30.068Z,164.59
2023-04-02T06:39:30.033Z,162.90
2023-04-02T06:40:30.009Z,164.65
2023-04-02T06:41:29.977Z,163.39
2023-04-02T06:42:29.989Z,164.85
2023-04-02T06:43:29.961Z,163.80
2023-04-02T06:44:29.977Z,165.98
2023-04-02T06:45:29.947Z,167.55
2023-04-02T06:46:30.082Z,165.68
2023-04-02T06:47:30.044Z,164.98
2023-04-02T06:48:30.060Z,164.75
2023-04-02T06:49:30.074Z,164.57
2023-04-02T06:50:30.089Z,163.59
2023-04-02T06:51:30.120Z,164.06
2023-04-02T06:52:30.178Z,163.78
2023-04-02T06:53:30.212Z,164.50
2023-04-02T06:54:30.240Z,162.67
2023-04-02T06:55:30.331Z,160.77
2023-04-02T06:56:30.266Z,160.16
2023-04-02T06:57:30.300Z,159.23
2023-04-02T06:58:30.310Z,160.93
2023-04-02T06:59:30.315Z,162.67
2023-04-02T07:00:30.344Z,160.00
2023-04-02T07:01:30.353Z,161.26
2023-04-02T07:02:30.420Z,161.87
2023-04-02T07:03:30.384Z,161.44
2023-04-02T07:04:30.447Z,159.25
2023-04-02T07:05:30.419Z,161.26
2023-04-02T07:06:30.420Z,161.97
2023-04-02T07:07:30.468Z,160.59
2023-04-02T07:08:30.451Z,159.84
2023-04-02T07:09:30.444Z,166.99
2023-04-02T07:10:30.474Z,164.40
2023-04-02T07:11:30.501Z,164.91
2023-04-02T07:12:30.504Z,165.19
2023-04-02T07:13:30.520Z,160.39
2023-04-02T07:14:30.505Z,167.06
2023-04-02T07:15:30.546Z,163.03
2023-04-02T07:16:30.569Z,165.49
2023-04-02T07:17:30.562Z,160.26
2023-04-02T07:18:30.571Z,161.86
2023-04-02T07:19:30.544Z,163.26
2023-04-02T07:20:30.555Z,160.69
2023-04-02T07:21:30.557Z,162.87
2023-04-02T07:22:30.568Z,164.55
2023-04-02T07:23:30.581Z,159.66
2023-04-02T07:24:30.576Z,156.95
2023-04-02T07:25:30.578Z,158.01
2023-04-02T07:26:30.560Z,153.29
2023-04-02T07:27:30.565Z,153.49
2023-04-02T07:28:30.520Z,155.10
2023-04-02T07:29:30.544Z,151.06
2023-04-02T07:30:30.577Z,148.20
2023-04-02T07:31:30.686Z,151.45
2023-04-02T07:32:30.624Z,150.00
2023-04-02T07:33:30.522Z,151.09
2023-04-02T07:34:30.491Z,149.34
2023-04-02T07:35:30.496Z,148.52
2023-04-02T07:36:30.984Z,147.85
2023-04-02T07:37:30.698Z,149.05
2023-04-02T07:38:30.476Z,152.12
2023-04-02T07:39:30.479Z,150.00
2023-04-02T07:40:30.448Z,151.82
2023-04-02T07:41:30.432Z,149.39
2023-04-02T07:42:30.441Z,148.60
2023-04-02T07:43:30.471Z,149.12
2023-04-02T07:44:30.425Z,148.53
2023-04-02T07:45:30.421Z,147.02
2023-04-02T07:46:30.412Z,147.93
2023-04-02T07:47:30.423Z,148.50
2023-04-02T07:48:30.372Z,150.76
2023-04-02T07:49:30.370Z,149.79
2023-04-02T07:50:30.355Z,149.65
2023-04-02T07:51:30.363Z,153.38
2023-04-02T07:52:30.351Z,153.43
2023-04-02T07:53:30.420Z,150.43
2023-04-02T07:54:30.376Z,153.03
2023-04-02T07:55:30.444Z,149.09
2023-04-02T07:56:30.414Z,151.46
2023-04-02T07:57:30.551Z,154.17
2023-04-02T07:58:30.460Z,154.32
2023-04-02T07:59:30.476Z,153.31
2023-04-02T08:00:30.534Z,152.06
2023-04-02T08:01:30.542Z,153.15
2023-04-02T08:02:30.589Z,155.48
2023-04-02T08:03:30.627Z,157.71
2023-04-02T08:04:30.561Z,154.20
2023-04-02T08:05:30.541Z,157.23
2023-04-02T08:06:30.546Z,152.53
2023-04-02T08:07:30.521Z,152.36
2023-04-02T08:08:30.542Z,153.87
2023-04-02T08:09:30.593Z,153.48
2023-04-02T08:10:30.545Z,156.39
2023-04-02T08:11:31.841Z,153.14
2023-04-02T08:12:30.522Z,155.12
2023-04-02T08:13:30.486Z,154.01
2023-04-02T08:14:30.479Z,152.90
2023-04-02T08:15:30.436Z,156.19
2023-04-02T08:16:30.468Z,150.31
2023-04-02T08:17:30.447Z,153.71
2023-04-02T08:18:30.424Z,151.62
2023-04-02T08:19:30.389Z,153.95
2023-04-02T08:20:30.412Z,155.44
2023-04-02T08:21:30.377Z,152.87
2023-04-02T08:22:30.391Z,150.11
2023-04-02T08:23:30.376Z,151.15
2023-04-02T08:24:30.380Z,151.24
2023-04-02T08:25:30.364Z,151.21
2023-04-02T08:26:30.312Z,147.58
2023-04-02T08:27:30.328Z,148.83
2023-04-02T08:28:30.309Z,147.21
2023-04-02T08:29:30.276Z,147.37
2023-04-02T08:30:30.314Z,147.30
2023-04-02T08:31:30.299Z,141.61
2023-04-02T08:32:30.302Z,143.65
2023-04-02T08:33:30.326Z,144.84
2023-04-02T08:34:30.271Z,141.54
2023-04-02T08:35:30.267Z,142.75
2023-04-02T08:36:30.326Z,140.13
2023-04-02T08:37:30.258Z,140.62
2023-04-02T08:38:30.349Z,139.23
2023-04-02T08:39:30.307Z,142.84
2023-04-02T08:40:30.293Z,141.78
2023-04-02T08:41:30.286Z,141.41
2023-04-02T08:42:30.270Z,137.58
2023-04-02T08:43:30.233Z,142.49
2023-04-02T08:44:30.249Z,137.77
2023-04-02T08:45:30.246Z,140.99
2023-04-02T08:46:31.070Z,136.66
2023-04-02T08:47:30.286Z,139.33
2023-04-02T08:48:30.297Z,135.93
2023-04-02T08:49:30.189Z,134.13
2023-04-02T08:50:30.162Z,131.11
2023-04-02T08:51:30.128Z,131.57
2023-04-02T08:52:30.107Z,133.34
2023-04-02T08:53:30.104Z,132.04
2023-04-02T08:54:30.473Z,134.08
2023-04-02T08:55:30.050Z,132.27
2023-04-02T08:56:30.032Z,126.73
2023-04-02T08:57:30.128Z,130.71
2023-04-02T08:58:30.061Z,128.99
2023-04-02T08:59:30.107Z,124.22
2023-04-02T09:00:30.012Z,125.17
2023-04-02T09:01:30.025Z,122.48
2023-04-02T09:02:30.078Z,124.62
2023-04-02T09:03:30.056Z,121.60
2023-04-02T09:04:30.057Z,119.95
2023-04-02T09:05:30.045Z,120.07
2023-04-02T09:06:30.045Z,118.81
2023-04-02T09:07:30.040Z,121.11
2023-04-02T09:08:30.051Z,115.81
2023-04-02T09:09:30.073Z,113.84
2023-04-02T09:10:30.065Z,113.35
2023-04-02T09:11:30.114Z,110.28
2023-04-02T09:12:30.080Z,112.67
2023-04-02T09:13:30.064Z,116.26
2023-04-02T09:14:30.092Z,111.19
2023-04-02T09:15:30.095Z,106.87
2023-04-02T09:16:30.103Z,107.62
2023-04-02T09:17:34.705Z,107.43
2023-04-02T09:18:31.153Z,107.66
2023-04-02T09:19:30.016Z,108.05
2023-04-02T09:20:29.962Z,104.92
2023-04-02T09:21:29.940Z,100.27
2023-04-02T09:22:29.906Z,87.92
2023-04-02T09:23:29.857Z,87.74
2023-04-02T09:24:29.808Z,82.47
2023-04-02T09:25:29.808Z,80.77
2023-04-02T09:26:29.740Z,75.63
2023-04-02T09:27:29.666Z,79.33
2023-04-02T09:28:29.676Z,73.86
2023-04-02T09:29:29.676Z,69.42
2023-04-02T09:30:29.717Z,65.93
2023-04-02T09:31:29.691Z,59.13
2023-04-02T09:32:29.674Z,67.09
2023-04-02T09:33:29.696Z,53.08
2023-04-02T09:34:29.706Z,48.45
2023-04-02T09:35:29.733Z,37.58
2023-04-02T09:36:29.770Z,37.40
2023-04-02T09:37:29.750Z,31.55
2023-04-02T09:38:29.767Z,27.68
2023-04-02T09:39:29.753Z,35.40
2023-04-02T09:40:29.755Z,41.01
2023-04-02T09:41:29.766Z,37.10
2023-04-02T09:42:29.801Z,30.33
2023-04-02T09:43:29.801Z,27.17
2023-04-02T09:44:29.787Z,36.17
2023-04-02T09:45:29.793Z,34.19
2023-04-02T09:46:29.797Z,32.65
2023-04-02T09:47:29.818Z,31.26
2023-04-02T09:48:29.839Z,34.77
2023-04-02T09:49:29.803Z,36.96
2023-04-02T09:50:29.851Z,37.27
2023-04-02T09:51:29.829Z,32.20
2023-04-02T09:52:29.805Z,38.23
2023-04-02T09:53:29.849Z,37.47
2023-04-02T09:54:29.855Z,34.35
2023-04-02T09:55:29.871Z,37.04
2023-04-02T09:56:29.869Z,31.34
2023-04-02T09:57:29.943Z,33.17
2023-04-02T09:58:29.889Z,26.86
2023-04-02T09:59:29.867Z,25.36
2023-04-02T10:00:32.103Z,25.52
2023-04-02T10:01:29.859Z,28.18
2023-04-02T10:02:29.864Z,28.72
2023-04-02T10:03:29.752Z,28.56
2023-04-02T10:04:29.746Z,34.41
2023-04-02T10:05:39.833Z,33.77
2023-04-02T10:06:30.588Z,33.84
2023-04-02T10:07:29.552Z,28.59
2023-04-02T10:08:29.539Z,30.28
2023-04-02T10:09:29.461Z,28.19
2023-04-02T10:10:29.462Z,29.63
2023-04-02T10:11:36.483Z,36.95
2023-04-02T10:12:30.366Z,37.07
2023-04-02T10:13:29.410Z,36.74
2023-04-02T10:14:29.276Z,31.38
2023-04-02T10:15:29.266Z,30.92
2023-04-02T10:16:29.255Z,35.58
2023-04-02T10:17:29.220Z,28.93
2023-04-02T10:18:29.161Z,27.91
2023-04-02T10:19:29.120Z,30.11
2023-04-02T10:20:30.520Z,26.04
2023-04-02T10:21:29.039Z,30.47
2023-04-02T10:22:29.035Z,26.53
2023-04-02T10:23:28.968Z,32.76
2023-04-02T10:24:28.924Z,33.40
2023-04-02T10:25:28.890Z,32.33
2023-04-02T10:26:28.852Z,30.14
2023-04-02T10:27:28.835Z,27.20
2023-04-02T10:28:28.787Z,26.06
2023-04-02T10:29:28.758Z,26.81
2023-04-02T10:30:28.694Z,25.98
2023-04-02T10:31:28.648Z,27.50
2023-04-02T10:32:28.644Z,29.12
2023-04-02T10:33:28.584Z,32.75
2023-04-02T10:34:28.541Z,36.36
2023-04-02T10:35:28.529Z,37.03
2023-04-02T10:36:28.471Z,34.78
2023-04-02T10:37:28.400Z,44.32
2023-04-02T10:38:28.393Z,46.29
2023-04-02T10:39:28.356Z,45.56
2023-04-02T10:40:28.293Z,40.26
2023-04-02T10:41:28.294Z,42.17
2023-04-02T10:42:28.249Z,46.07
2023-04-02T10:43:28.220Z,43.01
2023-04-02T10:44:28.159Z,37.74
2023-04-02T10:45:28.128Z,33.37
2023-04-02T10:46:28.136Z,25.25
2023-04-02T10:47:28.078Z,25.98
2023-04-02T10:48:28.011Z,26.95
2023-04-02T10:49:28.012Z,30.15
2023-04-02T10:50:27.960Z,33.07
2023-04-02T10:51:27.906Z,32.38
2023-04-02T10:52:27.870Z,31.75
2023-04-02T10:53:27.834Z,26.42
2023-04-02T10:54:27.810Z,25.00
2023-04-02T10:55:27.740Z,28.78
2023-04-02T10:56:28.588Z,30.17
2023-04-02T10:57:27.728Z,35.20
2023-04-02T10:58:27.663Z,34.94
2023-04-02T10:59:27.574Z,34.67
2023-04-02T11:00:27.575Z,28.89
2023-04-02T11:01:27.518Z,26.63
2023-04-02T11:02:27.547Z,26.71
2023-04-02T11:03:27.490Z,30.36
2023-04-02T11:04:27.383Z,26.82
2023-04-02T11:05:27.341Z,29.80
2023-04-02T11:06:28.498Z,34.65
2023-04-02T11:07:27.268Z,38.70
2023-04-02T11:08:27.258Z,37.27
2023-04-02T11:09:27.191Z,42.16
2023-04-02T11:10:27.170Z,43.77
2023-04-02T11:11:27.112Z,43.55
2023-04-02T11:12:27.041Z,44.26
2023-04-02T11:13:27.052Z,42.51
2023-04-02T11:14:27.036Z,34.31
2023-04-02T11:15:26.999Z,34.17
2023-04-02T11:16:27.050Z,34.06
2023-04-02T11:17:27.032Z,32.89
2023-04-02T11:18:26.943Z,42.46
2023-04-02T11:19:26.924Z,44.24
2023-04-02T11:20:26.888Z,43.03
2023-04-02T11:21:26.881Z,48.47
2023-04-02T11:22:26.871Z,47.28
2023-04-02T11:23:26.879Z,52.73
2023-04-02T11:24:26.869Z,42.50
2023-04-02T11:25:26.841Z,39.13
2023-04-02T11:26:26.799Z,41.81
2023-04-02T11:27:26.799Z,40.63
2023-04-02T11:28:26.812Z,41.82
2023-04-02T11:29:26.764Z,40.84
2023-04-02T11:30:26.761Z,44.01
2023-04-02T11:31:26.756Z,45.58
2023-04-02T11:32:26.695Z,40.69
2023-04-02T11:33:36.556Z,45.78
2023-04-02T11:34:27.668Z,46.07
2023-04-02T11:35:26.615Z,44.01
2023-04-02T11:36:26.576Z,45.40
2023-04-02T11:37:26.533Z,35.91
2023-04-02T11:38:26.509Z,38.43
2023-04-02T11:39:26.641Z,44.63
2023-04-02T11:40:26.411Z,44.37
2023-04-02T11:41:26.390Z,40.40
2023-04-02T11:42:26.347Z,37.48
2023-04-02T11:43:26.292Z,44.52
2023-04-02T11:44:26.286Z,40.13
2023-04-02T11:45:26.281Z,38.31
2023-04-02T11:46:26.222Z,37.96
2023-04-02T11:47:26.147Z,40.00
2023-04-02T11:48:26.114Z,45.09
2023-04-02T11:49:26.025Z,34.94
2023-04-02T11:50:26.031Z,34.52
2023-04-02T11:51:25.969Z,32.71
2023-04-02T11:52:25.930Z,35.93
2023-04-02T11:53:25.894Z,32.74
2023-04-02T11:54:25.869Z,33.22
2023-04-02T11:55:25.794Z,33.55
2023-04-02T11:56:25.761Z,34.88
2023-04-02T11:57:25.822Z,37.71
2023-04-02T11:58:25.741Z,33.87
2023-04-02T11:59:25.735Z,34.87
2023-04-02T12:00:25.695Z,26.57
2023-04-02T12:01:25.678Z,28.90
2023-04-02T12:02:25.840Z,34.46
2023-04-02T12:03:25.668Z,39.10
2023-04-02T12:04:25.654Z,43.39
2023-04-02T12:05:25.700Z,48.90
2023-04-02T12:06:25.609Z,47.75
2023-04-02T12:07:25.614Z,32.99
2023-04-02T12:08:25.601Z,26.10
2023-04-02T12:09:25.573Z,25.00
2023-04-02T12:10:25.583Z,26.04
2023-04-02T12:11:25.570Z,27.40
2023-04-02T12:12:25.576Z,25.00
2023-04-02T12:13:25.540Z,24.20
2023-04-02T12:14:25.569Z,25.57
2023-04-02T12:15:25.576Z,31.24
2023-04-02T12:16:25.559Z,32.20
2023-04-02T12:17:25.622Z,32.02
2023-04-02T12:18:25.570Z,33.54
2023-04-02T12:19:25.581Z,42.58
2023-04-02T12:20:25.534Z,51.89
2023-04-02T12:21:25.533Z,55.30
2023-04-02T12:22:25.526Z,55.07
2023-04-02T12:23:25.504Z,40.32
2023-04-02T12:24:25.538Z,38.32
2023-04-02T12:25:25.499Z,34.91
2023-04-02T12:26:25.489Z,30.53
2023-04-02T12:27:25.484Z,33.90
2023-04-02T12:28:25.491Z,38.06
2023-04-02T12:29:25.496Z,46.85
2023-04-02T12:30:25.457Z,37.53
2023-04-02T12:31:25.521Z,48.92
2023-04-02T12:32:26.644Z,39.94
2023-04-02T12:33:25.464Z,29.66
2023-04-02T12:34:25.452Z,45.39